Time;durP1;ratioP1;P1;durP2;ratioP2;P2;SDS_P1;SDS_P2;PMS_P1;PMS_P2;Temp;Humidity;BMP_temperature;BMP_pressure;BME280_temperature;BME280_humidity;BME280_pressure;Samples;Min_cycle;Max_cycle;Signal;HPM_P1;HPM_P2
2022/09/26 00:01:31;;;;;;;4.50;2.40;;;13.30;99.90;;;;;;5081629;28;20059;-84
2022/09/26 00:04:00;;;;;;;8.35;2.83;;;13.40;99.90;;;;;;5091896;28;20044;-84
2022/09/26 00:06:28;;;;;;;8.30;2.90;;;13.40;99.90;;;;;;5090705;28;20043;-83
2022/09/26 00:08:56;;;;;;;9.30;3.10;;;13.40;99.90;;;;;;5086212;28;20075;-84
2022/09/26 00:11:25;;;;;;;13.40;3.20;;;13.40;99.90;;;;;;5092185;28;20044;-84
2022/09/26 00:13:53;;;;;;;7.68;3.15;;;13.50;99.90;;;;;;5085505;28;20105;-83
2022/09/26 00:16:20;;;;;;;8.45;3.92;;;13.40;99.90;;;;;;5088238;28;20037;-83
2022/09/26 00:18:49;;;;;;;8.82;3.38;;;13.40;99.90;;;;;;5089564;28;20044;-84
2022/09/26 00:21:16;;;;;;;7.35;4.07;;;13.40;99.90;;;;;;5083983;28;20052;-84
2022/09/26 00:23:43;;;;;;;9.30;4.00;;;13.40;99.90;;;;;;5088774;28;20048;-83
2022/09/26 00:26:12;;;;;;;9.77;4.25;;;13.40;99.90;;;;;;5089141;28;20048;-84
2022/09/26 00:28:40;;;;;;;9.80;4.35;;;13.40;99.90;;;;;;5085093;28;20036;-84
2022/09/26 00:31:08;;;;;;;9.95;3.72;;;13.40;99.90;;;;;;5081936;28;20119;-84
2022/09/26 00:33:35;;;;;;;11.52;4.70;;;13.40;99.90;;;;;;5090187;28;20055;-83
2022/09/26 00:36:03;;;;;;;8.38;4.40;;;13.50;99.90;;;;;;5088754;28;20138;-83
2022/09/26 00:38:30;;;;;;;10.77;4.15;;;13.50;99.90;;;;;;5084431;28;20028;-84
2022/09/26 00:40:57;;;;;;;8.25;4.40;;;13.50;99.90;;;;;;5083671;28;20147;-84
2022/09/26 00:43:28;;;;;;;8.32;4.20;;;13.50;99.90;;;;;;5082571;28;20116;-83
2022/09/26 00:45:59;;;;;;;8.80;3.70;;;13.50;99.90;;;;;;5083059;28;20055;-83
2022/09/26 00:48:26;;;;;;;8.40;4.18;;;13.50;99.90;;;;;;5077679;28;20048;-83
2022/09/26 00:50:54;;;;;;;6.60;3.88;;;13.50;99.90;;;;;;5090119;28;20042;-83
2022/09/26 00:53:23;;;;;;;7.93;3.75;;;13.50;99.90;;;;;;5071416;28;20048;-83
2022/09/26 00:55:54;;;;;;;9.80;4.00;;;13.50;99.90;;;;;;5070504;28;20045;-83
2022/09/26 00:58:26;;;;;;;8.97;3.60;;;13.50;99.90;;;;;;5086663;28;20032;-84
2022/09/26 01:00:54;;;;;;;12.23;4.25;;;13.50;99.90;;;;;;5080322;28;20330;-83
2022/09/26 01:03:22;;;;;;;9.73;4.60;;;13.50;99.90;;;;;;5086622;28;20097;-83
2022/09/26 01:05:49;;;;;;;8.90;3.40;;;13.50;99.90;;;;;;5088196;28;20176;-83
2022/09/26 01:08:20;;;;;;;8.15;4.00;;;13.50;99.90;;;;;;5086688;28;20047;-84
2022/09/26 01:10:47;;;;;;;9.20;3.60;;;13.60;99.90;;;;;;5089503;28;20074;-83
2022/09/26 01:13:14;;;;;;;7.15;3.63;;;13.50;99.90;;;;;;5087083;28;20052;-83
2022/09/26 01:15:42;;;;;;;9.13;4.03;;;13.50;99.90;;;;;;5082074;28;20052;-83
2022/09/26 01:18:11;;;;;;;10.75;4.00;;;13.50;99.90;;;;;;5082622;28;20032;-83
2022/09/26 01:20:47;;;;;;;10.43;4.32;;;13.50;99.90;;;;;;5087714;28;20052;-83
2022/09/26 01:23:36;;;;;;;7.75;3.92;;;13.50;99.90;;;;;;5084526;28;20051;-83
2022/09/26 01:26:39;;;;;;;9.05;4.05;;;13.60;99.90;;;;;;5088399;28;20040;-84
2022/09/26 01:29:40;;;;;;;8.32;4.28;;;13.60;99.90;;;;;;5026918;28;20069;-83
2022/09/26 01:35:04;;;;;;;9.07;4.47;;;13.60;99.90;;;;;;5068005;28;20139;-83
2022/09/26 01:37:36;;;;;;;11.97;4.40;;;13.60;99.90;;;;;;5082369;28;20058;-83
2022/09/26 01:40:09;;;;;;;7.63;4.05;;;13.60;99.90;;;;;;5089070;28;20415;-83
2022/09/26 01:42:41;;;;;;;8.90;3.90;;;13.60;99.90;;;;;;5084374;28;20051;-83
2022/09/26 01:45:13;;;;;;;9.85;3.78;;;13.60;99.90;;;;;;5086820;28;20052;-83
2022/09/26 01:47:45;;;;;;;7.57;3.80;;;13.70;99.90;;;;;;5073169;28;20055;-84
2022/09/26 01:50:15;;;;;;;9.27;4.47;;;13.70;99.90;;;;;;5087587;28;20142;-83
2022/09/26 01:52:48;;;;;;;9.10;3.70;;;13.70;99.90;;;;;;5068725;28;20057;-83
2022/09/26 01:55:17;;;;;;;9.38;3.90;;;13.70;99.90;;;;;;5076550;28;20079;-83
2022/09/26 01:57:48;;;;;;;9.23;4.00;;;13.70;99.90;;;;;;5083471;28;20040;-83
2022/09/26 02:00:17;;;;;;;10.43;3.97;;;13.70;99.90;;;;;;5087600;28;20048;-83
2022/09/26 02:02:48;;;;;;;11.85;4.97;;;13.70;99.90;;;;;;5088155;28;20048;-83
2022/09/26 02:05:16;;;;;;;;;;;13.70;99.90;;;;;;5079012;28;20044;-84
2022/09/26 02:07:47;;;;;;;9.27;4.78;;;13.70;99.90;;;;;;5082626;28;20009;-83
2022/09/26 02:10:19;;;;;;;9.77;4.85;;;13.70;99.90;;;;;;5084450;28;20511;-83
2022/09/26 02:12:48;;;;;;;9.32;5.43;;;13.70;99.90;;;;;;5080826;28;20040;-83
2022/09/26 02:15:18;;;;;;;11.70;5.18;;;13.80;99.90;;;;;;5077776;28;20135;-83
2022/09/26 02:17:49;;;;;;;14.15;5.45;;;13.80;99.90;;;;;;5082256;28;20047;-83
2022/09/26 02:20:23;;;;;;;14.27;6.47;;;13.70;99.90;;;;;;5083925;28;20044;-83
2022/09/26 02:22:50;;;;;;;10.82;5.25;;;13.80;99.90;;;;;;5088072;28;20047;-83
2022/09/26 02:25:17;;;;;;;12.60;5.72;;;13.70;99.90;;;;;;5086275;28;20479;-83
2022/09/26 02:27:44;;;;;;;10.30;5.88;;;13.80;99.90;;;;;;5086427;28;20052;-83
2022/09/26 02:30:12;;;;;;;12.65;6.15;;;13.70;99.90;;;;;;5078242;28;20110;-83
2022/09/26 02:32:38;;;;;;;13.07;6.05;;;13.80;99.90;;;;;;5081489;28;20034;-83
2022/09/26 02:37:55;;;;;;;12.55;6.65;;;13.80;99.90;;;;;;5058819;28;20059;-83
2022/09/26 02:40:28;;;;;;;15.80;6.40;;;13.70;99.90;;;;;;5080588;28;20052;-83
2022/09/26 02:43:03;;;;;;;15.35;7.45;;;13.80;99.90;;;;;;5079002;28;20492;-83
2022/09/26 02:45:36;;;;;;;14.18;6.85;;;13.80;99.90;;;;;;5081424;28;20040;-83
2022/09/26 02:48:07;;;;;;;;;;;13.80;99.90;;;;;;5083904;28;20052;-83
2022/09/26 02:50:41;;;;;;;11.80;6.78;;;13.80;99.90;;;;;;5079834;28;20429;-83
2022/09/26 02:53:20;;;;;;;16.98;6.90;;;13.80;99.90;;;;;;5086532;28;20148;-84
2022/09/26 02:56:00;;;;;;;12.95;7.38;;;13.80;99.90;;;;;;5086280;28;20502;-84
2022/09/26 02:58:35;;;;;;;18.60;7.10;;;13.80;99.90;;;;;;5078133;28;20119;-83
2022/09/26 03:01:08;;;;;;;12.32;6.95;;;13.80;99.90;;;;;;5074825;28;20052;-83
2022/09/26 03:03:38;;;;;;;13.35;6.75;;;13.80;99.90;;;;;;5083506;28;20051;-83
2022/09/26 03:06:08;;;;;;;16.15;7.60;;;13.80;99.90;;;;;;5084664;28;20071;-83
2022/09/26 03:08:38;;;;;;;15.03;7.30;;;13.80;99.90;;;;;;5088616;28;20420;-83
2022/09/26 03:11:09;;;;;;;13.30;7.18;;;13.80;99.90;;;;;;5087478;28;20109;-84
2022/09/26 03:13:38;;;;;;;15.57;7.05;;;13.80;99.90;;;;;;5080214;28;20515;-83
2022/09/26 03:16:06;;;;;;;11.90;6.68;;;13.80;99.90;;;;;;5078972;28;20389;-83
2022/09/26 03:18:37;;;;;;;13.52;7.07;;;13.80;99.90;;;;;;5081698;28;20051;-83
2022/09/26 03:21:05;;;;;;;13.20;6.60;;;13.80;99.90;;;;;;5086658;28;20105;-83
2022/09/26 03:23:33;;;;;;;15.43;7.05;;;13.80;99.90;;;;;;5086860;28;20044;-83
2022/09/26 03:26:08;;;;;;;13.88;6.88;;;13.80;99.90;;;;;;5084091;28;20143;-83
2022/09/26 03:28:37;;;;;;;13.35;7.20;;;13.90;99.90;;;;;;5080741;28;20052;-83
2022/09/26 03:31:04;;;;;;;12.85;6.90;;;13.80;99.90;;;;;;5083884;28;20047;-83
2022/09/26 03:33:40;;;;;;;10.88;6.82;;;13.80;99.90;;;;;;5077849;28;20429;-83
2022/09/26 03:36:12;;;;;;;12.02;7.03;;;13.80;99.90;;;;;;5078797;28;20040;-83
2022/09/26 03:38:39;;;;;;;12.82;6.53;;;13.80;99.90;;;;;;5086694;28;20044;-83
2022/09/26 03:41:18;;;;;;;14.15;7.40;;;13.80;99.90;;;;;;5085900;28;20040;-84
2022/09/26 03:44:05;;;;;;;16.65;7.72;;;13.80;99.90;;;;;;5086991;28;20150;-83
2022/09/26 03:46:51;;;;;;;11.57;6.88;;;13.80;99.90;;;;;;5085036;28;20519;-83
2022/09/26 03:49:18;;;;;;;13.80;7.57;;;13.80;99.90;;;;;;5086772;28;20036;-83
2022/09/26 03:51:46;;;;;;;14.32;7.07;;;13.90;99.90;;;;;;5068645;28;20048;-83
2022/09/26 03:54:13;;;;;;;14.75;7.65;;;13.80;99.90;;;;;;5080355;28;20265;-83
2022/09/26 03:56:40;;;;;;;13.10;8.20;;;13.90;99.90;;;;;;5085225;28;20093;-83
2022/09/26 03:59:07;;;;;;;15.88;7.95;;;13.90;99.90;;;;;;5086933;28;20052;-83
2022/09/26 04:01:34;;;;;;;15.77;7.57;;;13.90;99.90;;;;;;5078619;28;20040;-83
2022/09/26 04:04:01;;;;;;;15.60;8.18;;;13.80;99.90;;;;;;5086702;28;20496;-83
2022/09/26 04:06:28;;;;;;;15.30;8.35;;;13.80;99.90;;;;;;5091939;28;20044;-83
2022/09/26 04:08:57;;;;;;;15.05;7.85;;;13.80;99.90;;;;;;5071406;28;20048;-84
2022/09/26 04:11:24;;;;;;;15.55;8.07;;;13.80;99.90;;;;;;5072079;28;20110;-84
2022/09/26 04:13:52;;;;;;;12.82;7.53;;;13.80;99.90;;;;;;5084541;28;20052;-85
2022/09/26 04:16:22;;;;;;;10.18;7.15;;;13.80;99.90;;;;;;5080815;28;20051;-85
2022/09/26 04:18:56;;;;;;;13.90;7.78;;;13.80;99.90;;;;;;5091004;28;20052;-85
2022/09/26 04:21:25;;;;;;;13.75;8.50;;;13.80;99.90;;;;;;5087076;28;20052;-84
2022/09/26 04:23:53;;;;;;;15.07;7.75;;;13.80;99.90;;;;;;5089049;28;20048;-84
2022/09/26 04:26:23;;;;;;;13.02;7.45;;;13.80;99.90;;;;;;5082164;28;20047;-85
2022/09/26 04:28:50;;;;;;;13.00;8.25;;;13.80;99.90;;;;;;5081901;28;20052;-85
2022/09/26 04:31:20;;;;;;;20.10;8.30;;;13.80;99.90;;;;;;5088218;28;20078;-85
2022/09/26 04:33:53;;;;;;;15.50;7.57;;;13.80;99.90;;;;;;5086031;28;20125;-84
2022/09/26 04:36:20;;;;;;;14.50;8.18;;;13.80;99.90;;;;;;5088747;28;20067;-84
2022/09/26 04:38:47;;;;;;;17.75;8.07;;;13.80;99.90;;;;;;5084608;28;20109;-83
2022/09/26 04:41:17;;;;;;;12.48;7.90;;;13.80;99.90;;;;;;5083842;28;20044;-84
2022/09/26 04:43:46;;;;;;;15.52;8.02;;;13.80;99.90;;;;;;5084698;28;20084;-84
2022/09/26 04:46:15;;;;;;;15.77;8.18;;;13.70;99.90;;;;;;5071610;28;20118;-82
2022/09/26 04:48:44;;;;;;;15.18;8.05;;;13.80;99.90;;;;;;5080074;28;20048;-82
2022/09/26 04:51:18;;;;;;;15.63;7.80;;;13.80;99.90;;;;;;5089576;28;20147;-82
2022/09/26 04:53:45;;;;;;;13.02;7.72;;;13.70;99.90;;;;;;5080953;28;20139;-82
2022/09/26 04:56:18;;;;;;;15.45;8.23;;;13.70;99.90;;;;;;5082133;28;20101;-81
2022/09/26 04:58:47;;;;;;;15.77;8.15;;;13.70;99.90;;;;;;5088276;28;20058;-81
2022/09/26 05:01:16;;;;;;;14.50;7.72;;;13.70;99.90;;;;;;5088062;28;20052;-82
2022/09/26 05:04:06;;;;;;;17.05;7.93;;;13.70;99.90;;;;;;5084244;28;20357;-82
2022/09/26 05:06:34;;;;;;;13.30;7.93;;;13.70;99.90;;;;;;5088304;28;20048;-82
2022/09/26 05:09:03;;;;;;;16.13;7.70;;;13.70;99.90;;;;;;5089192;28;20131;-82
2022/09/26 05:11:53;;;;;;;15.85;8.00;;;13.70;99.90;;;;;;5087562;28;20048;-81
2022/09/26 05:14:21;;;;;;;14.13;8.02;;;13.70;99.90;;;;;;5080364;28;20049;-81
2022/09/26 05:16:49;;;;;;;13.10;8.02;;;13.70;99.90;;;;;;5077770;28;20055;-81
2022/09/26 05:19:17;;;;;;;14.07;7.72;;;13.70;99.90;;;;;;5085941;28;20463;-81
2022/09/26 05:22:16;;;;;;;14.05;7.75;;;13.80;99.90;;;;;;5055358;28;20056;-82
2022/09/26 05:27:27;;;;;;;14.80;6.93;;;13.70;99.90;;;;;;5087791;28;20502;-79
2022/09/26 05:29:55;;;;;;;13.27;7.47;;;13.70;99.90;;;;;;5087941;28;20044;-79
2022/09/26 05:32:23;;;;;;;12.57;7.43;;;13.80;99.90;;;;;;5085065;28;20418;-79
2022/09/26 05:34:53;;;;;;;11.73;7.20;;;13.70;99.90;;;;;;5084396;28;20052;-79
2022/09/26 05:37:21;;;;;;;11.27;7.05;;;13.70;99.90;;;;;;5088955;28;20051;-79
2022/09/26 05:42:44;;;;;;;14.18;6.20;;;13.70;99.90;;;;;;5044954;28;20051;-79
2022/09/26 05:45:14;;;;;;;13.38;7.28;;;13.70;99.90;;;;;;5088064;28;20069;-79
2022/09/26 05:47:42;;;;;;;13.25;6.75;;;13.80;99.90;;;;;;5085317;28;20041;-79
2022/09/26 05:50:10;;;;;;;13.77;6.80;;;13.70;99.90;;;;;;5087627;28;20065;-79
2022/09/26 05:52:38;;;;;;;17.30;6.93;;;13.80;99.90;;;;;;5087881;28;20389;-79
2022/09/26 05:55:06;;;;;;;19.35;7.75;;;13.80;99.90;;;;;;5038787;22;20050;-83
2022/09/26 05:58:06;;;;;;;14.55;6.25;;;13.80;99.90;;;;;;5011709;28;20206;-84
2022/09/26 06:00:53;;;;;;;17.35;6.63;;;13.80;99.90;;;;;;5035269;28;20060;-83
2022/09/26 06:03:21;;;;;;;16.65;6.65;;;13.80;99.90;;;;;;5023579;28;20159;-83
2022/09/26 06:06:08;;;;;;;13.95;6.30;;;13.70;99.90;;;;;;5023477;28;20139;-82
2022/09/26 06:08:36;;;;;;;14.10;6.05;;;13.80;99.90;;;;;;5017894;28;20496;-83
2022/09/26 06:11:29;;;;;;;9.40;5.60;;;13.80;99.90;;;;;;5013502;28;20054;-83
2022/09/26 06:13:59;;;;;;;11.52;6.15;;;13.80;99.90;;;;;;5009613;28;20521;-83
2022/09/26 06:16:27;;;;;;;10.98;5.78;;;13.80;99.90;;;;;;5013470;28;20048;-83
2022/09/26 06:18:54;;;;;;;9.90;5.63;;;13.80;99.90;;;;;;5022227;28;20072;-83
2022/09/26 06:21:22;;;;;;;16.55;5.93;;;13.90;99.90;;;;;;5030606;28;20063;-83
2022/09/26 06:24:02;;;;;;;10.13;5.10;;;13.80;99.90;;;;;;5018442;28;20053;-83
2022/09/26 06:26:30;;;;;;;12.43;5.47;;;13.90;99.90;;;;;;5017398;28;20239;-84
2022/09/26 06:28:58;;;;;;;8.88;5.05;;;13.90;99.90;;;;;;5007070;28;20046;-83
2022/09/26 06:31:29;;;;;;;11.05;5.35;;;13.90;99.90;;;;;;5009433;28;20034;-84
2022/09/26 06:34:12;;;;;;;10.23;4.97;;;14.00;99.90;;;;;;5026521;28;20413;-84
2022/09/26 06:36:48;;;;;;;10.23;4.82;;;14.00;99.90;;;;;;5018470;28;20127;-84
2022/09/26 06:39:15;;;;;;;10.10;5.70;;;14.00;99.90;;;;;;5011955;28;20611;-84
2022/09/26 06:41:44;;;;;;;10.35;5.40;;;14.00;99.90;;;;;;5010653;28;20048;-84
2022/09/26 06:44:28;;;;;;;8.73;4.40;;;14.00;99.90;;;;;;5007323;28;20054;-84
2022/09/26 06:47:15;;;;;;;11.63;5.55;;;14.00;99.90;;;;;;5027998;28;20433;-83
2022/09/26 06:49:44;;;;;;;11.25;5.55;;;14.00;99.90;;;;;;5025502;28;20049;-83
2022/09/26 06:52:24;;;;;;;12.00;4.72;;;14.10;99.90;;;;;;5013133;28;20426;-83
2022/09/26 06:54:51;;;;;;;12.63;5.22;;;14.00;99.90;;;;;;5009509;28;20418;-83
2022/09/26 06:57:18;;;;;;;10.82;5.30;;;14.10;99.90;;;;;;5021572;28;20041;-83
2022/09/26 06:59:45;;;;;;;10.25;4.93;;;14.10;99.90;;;;;;5048633;28;20124;-83
2022/09/26 07:02:25;;;;;;;12.57;5.03;;;14.10;99.90;;;;;;5017302;28;20649;-83
2022/09/26 07:05:13;;;;;;;10.45;5.38;;;14.10;99.90;;;;;;5026699;28;20095;-83
2022/09/26 07:07:48;;;;;;;10.52;5.50;;;14.10;99.90;;;;;;5021440;28;20068;-84
2022/09/26 07:10:23;;;;;;;11.98;5.28;;;14.10;99.90;;;;;;5015261;28;20568;-84
2022/09/26 07:13:04;;;;;;;11.50;5.03;;;14.10;99.90;;;;;;5017417;28;20050;-84
2022/09/26 07:15:32;;;;;;;12.23;5.47;;;14.20;99.90;;;;;;5009157;28;20057;-84
2022/09/26 07:18:02;;;;;;;12.95;5.72;;;14.20;99.90;;;;;;5018924;28;20045;-84
2022/09/26 07:20:40;;;;;;;9.68;4.90;;;14.20;99.90;;;;;;5001530;28;20394;-84
2022/09/26 07:23:26;;;;;;;8.48;4.82;;;14.10;99.90;;;;;;5023437;28;20049;-84
2022/09/26 07:25:53;;;;;;;8.55;4.88;;;14.20;99.90;;;;;;5027224;28;20041;-83
2022/09/26 07:28:21;;;;;;;10.18;4.80;;;14.20;99.90;;;;;;5043824;28;20041;-83
2022/09/26 07:30:49;;;;;;;10.00;5.10;;;14.20;99.90;;;;;;5009432;28;20832;-84
2022/09/26 07:33:44;;;;;;;12.65;5.22;;;14.20;99.90;;;;;;5022164;28;20050;-84
2022/09/26 07:36:11;;;;;;;11.50;4.68;;;14.20;99.90;;;;;;5011551;28;20112;-83
2022/09/26 07:38:39;;;;;;;15.63;5.20;;;14.20;99.90;;;;;;5006316;28;20119;-83
2022/09/26 07:41:09;;;;;;;10.48;4.88;;;14.20;99.90;;;;;;5011618;28;20360;-84
2022/09/26 07:43:36;;;;;;;9.95;4.70;;;14.30;99.90;;;;;;5010726;28;20136;-83
2022/09/26 07:51:59;;;;;;;12.05;4.95;;;14.30;99.90;;;;;;5010921;28;20084;-83
2022/09/26 07:54:35;;;;;;;10.05;4.80;;;14.30;99.90;;;;;;5011339;28;20042;-83
2022/09/26 07:57:20;;;;;;;11.07;5.50;;;14.30;99.90;;;;;;5033675;28;20048;-84
2022/09/26 08:00:06;;;;;;;8.80;4.63;;;14.30;99.90;;;;;;5013352;28;20041;-84
2022/09/26 08:03:01;;;;;;;11.07;5.03;;;14.20;99.90;;;;;;5019402;28;20050;-84
2022/09/26 08:05:31;;;;;;;12.38;5.07;;;14.20;99.90;;;;;;5024654;28;20049;-83
2022/09/26 08:07:58;;;;;;;10.23;4.82;;;14.20;99.90;;;;;;5011565;28;20064;-84
2022/09/26 08:10:44;;;;;;;12.25;4.93;;;14.20;99.90;;;;;;5028860;28;20199;-84
2022/09/26 08:13:37;;;;;;;11.13;5.10;;;14.20;99.90;;;;;;5031604;28;20588;-84
2022/09/26 08:16:24;;;;;;;12.07;4.90;;;14.20;99.90;;;;;;5016966;28;20049;-84
2022/09/26 08:18:57;;;;;;;14.02;5.13;;;14.20;99.90;;;;;;5012185;28;20391;-84
2022/09/26 08:21:27;;;;;;;9.00;4.70;;;14.20;99.90;;;;;;5021909;28;20040;-84
2022/09/26 08:23:57;;;;;;;9.95;5.53;;;14.20;99.90;;;;;;5017111;28;20058;-84
2022/09/26 08:26:34;;;;;;;11.48;5.53;;;14.30;99.90;;;;;;5021184;28;20160;-85
2022/09/26 08:29:18;;;;;;;8.70;5.28;;;14.30;99.90;;;;;;5007346;28;20104;-84
2022/09/26 08:31:49;;;;;;;14.32;5.75;;;14.30;99.90;;;;;;5007813;28;20099;-84
2022/09/26 08:34:16;;;;;;;11.40;5.00;;;14.30;99.90;;;;;;5010873;28;20136;-84
2022/09/26 08:36:53;;;;;;;10.82;4.53;;;14.30;99.90;;;;;;5012358;28;20422;-85
2022/09/26 08:39:32;;;;;;;12.00;5.30;;;14.40;99.90;;;;;;5012800;28;20053;-84
2022/09/26 08:42:32;;;;;;;13.35;5.25;;;14.30;99.90;;;;;;5030715;28;20060;-84
2022/09/26 08:48:52;;;;;;;11.10;5.07;;;14.30;99.90;;;;;;5027822;28;20551;-84
2022/09/26 08:51:26;;;;;;;10.85;5.10;;;14.40;99.90;;;;;;5018911;28;20043;-84
2022/09/26 08:54:00;;;;;;;11.25;5.22;;;14.30;99.90;;;;;;5004570;28;20073;-86
2022/09/26 08:56:30;;;;;;;12.93;5.60;;;14.30;99.90;;;;;;5009668;28;20543;-87
2022/09/26 08:58:58;;;;;;;10.38;5.28;;;14.30;99.90;;;;;;5020190;28;20833;-86
2022/09/26 09:01:31;;;;;;;11.35;4.95;;;14.30;99.90;;;;;;5026036;28;20044;-85
2022/09/26 09:04:14;;;;;;;11.98;6.03;;;14.30;99.90;;;;;;5016825;28;20509;-86
2022/09/26 09:06:42;;;;;;;11.43;5.25;;;14.30;99.90;;;;;;5018676;28;20535;-86
2022/09/26 09:09:14;;;;;;;9.73;5.03;;;14.20;99.90;;;;;;5022427;28;20103;-86
2022/09/26 09:12:20;;;;;;;9.23;4.88;;;14.20;99.90;;;;;;5003541;28;20148;-85
2022/09/26 09:15:07;;;;;;;9.95;5.15;;;14.20;99.90;;;;;;5018165;28;20053;-86
2022/09/26 09:17:48;;;;;;;11.00;5.15;;;14.20;99.90;;;;;;5016488;28;20057;-86
2022/09/26 09:20:38;;;;;;;10.85;4.90;;;14.20;99.90;;;;;;5013528;28;20045;-84
2022/09/26 09:23:32;;;;;;;9.73;4.20;;;14.20;99.90;;;;;;5030851;28;20537;-83
2022/09/26 09:26:08;;;;;;;11.60;4.20;;;14.20;99.90;;;;;;4991890;28;20053;-83
2022/09/26 09:28:56;;;;;;;8.75;4.07;;;14.20;99.90;;;;;;5006610;28;20038;-83
2022/09/26 09:31:25;;;;;;;10.20;3.75;;;14.10;99.90;;;;;;5010717;28;20061;-83
2022/09/26 09:34:13;;;;;;;8.65;4.07;;;14.10;99.90;;;;;;5013278;28;20045;-83
2022/09/26 09:37:19;;;;;;;8.32;3.45;;;14.20;99.90;;;;;;5010689;28;20049;-84
2022/09/26 09:40:22;;;;;;;9.43;4.13;;;14.20;99.90;;;;;;5012464;28;20057;-84
2022/09/26 09:43:01;;;;;;;8.48;3.83;;;14.20;99.90;;;;;;5018751;28;20052;-83
2022/09/26 09:45:39;;;;;;;10.05;3.60;;;14.10;99.90;;;;;;5029179;28;20045;-84
2022/09/26 09:48:10;;;;;;;7.28;3.60;;;14.20;99.90;;;;;;5007932;28;20115;-83
2022/09/26 09:50:39;;;;;;;;;;;14.30;99.90;;;;;;5035040;28;20053;-83
2022/09/26 09:53:14;;;;;;;8.50;3.33;;;14.20;99.90;;;;;;5007523;28;19932;-83
2022/09/26 09:55:53;;;;;;;7.68;3.15;;;14.20;99.90;;;;;;5017177;28;20045;-83
2022/09/26 09:58:32;;;;;;;6.50;3.08;;;14.20;99.90;;;;;;5012244;28;20550;-83
2022/09/26 10:01:08;;;;;;;8.23;3.30;;;14.30;99.90;;;;;;5018219;28;20049;-83
2022/09/26 10:03:40;;;;;;;8.10;2.90;;;14.30;99.90;;;;;;5006099;28;20855;-82
2022/09/26 10:06:11;;;;;;;7.53;3.35;;;14.30;99.90;;;;;;5010637;28;20140;-84
2022/09/26 10:08:42;;;;;;;8.07;3.28;;;14.30;99.90;;;;;;5017447;28;20049;-84
2022/09/26 10:11:31;;;;;;;9.02;3.65;;;14.30;99.90;;;;;;5023494;28;20518;-83
2022/09/26 10:14:27;;;;;;;8.15;3.30;;;14.50;99.90;;;;;;5028046;28;20057;-84
2022/09/26 10:17:20;;;;;;;7.90;3.00;;;14.30;99.90;;;;;;5028831;28;20417;-84
2022/09/26 10:20:03;;;;;;;6.28;3.10;;;14.30;99.90;;;;;;5010117;28;20053;-83
2022/09/26 10:22:36;;;;;;;6.93;3.00;;;14.30;99.90;;;;;;5010376;28;20037;-84
2022/09/26 10:25:07;;;;;;;10.80;2.70;;;14.30;99.90;;;;;;5010462;28;20553;-84
2022/09/26 10:27:37;;;;;;;8.93;2.80;;;14.30;99.90;;;;;;5010592;28;20045;-84
2022/09/26 10:30:25;;;;;;;7.20;3.00;;;14.30;99.90;;;;;;5031142;28;20050;-84
2022/09/26 10:32:56;;;;;;;5.40;2.65;;;14.40;99.90;;;;;;5012837;28;20521;-85
2022/09/26 10:35:42;;;;;;;8.48;2.75;;;14.40;99.90;;;;;;5025837;28;20082;-85
2022/09/26 10:38:19;;;;;;;9.77;3.10;;;14.40;99.90;;;;;;5011875;28;20049;-84
2022/09/26 10:40:51;;;;;;;6.90;3.13;;;14.40;99.90;;;;;;5004364;28;20087;-84
2022/09/26 10:43:21;;;;;;;6.88;3.13;;;14.40;99.90;;;;;;5010712;28;20041;-84
2022/09/26 10:45:53;;;;;;;8.60;3.53;;;14.40;99.90;;;;;;5005810;28;20079;-84
2022/09/26 10:48:48;;;;;;;8.77;3.30;;;14.40;99.90;;;;;;5029290;28;20692;-84
2022/09/26 10:51:38;;;;;;;6.90;3.30;;;14.40;99.90;;;;;;5021779;28;20046;-84
2022/09/26 10:54:09;;;;;;;10.63;3.55;;;14.50;99.90;;;;;;5010338;28;20049;-85
2022/09/26 10:56:38;;;;;;;7.63;3.40;;;14.50;99.90;;;;;;5019289;28;20703;-84
2022/09/26 10:59:07;;;;;;;7.25;3.70;;;14.50;99.90;;;;;;5025525;28;20041;-84
2022/09/26 11:01:41;;;;;;;9.35;3.55;;;14.50;99.90;;;;;;5014806;28;20045;-89
2022/09/26 11:05:55;;;;;;;7.93;3.70;;;14.60;99.90;;;;;;5011067;28;20108;-85
2022/09/26 11:07:23;;;;;;;;;;;14.60;99.90;;;;;;5028127;28;20172;-84
2022/09/26 11:10:00;;;;;;;6.13;3.20;;;14.60;99.90;;;;;;5027668;28;19925;-85
2022/09/26 11:12:59;;;;;;;7.88;3.40;;;14.70;99.90;;;;;;5023079;28;20044;-85
2022/09/26 11:15:27;;;;;;;8.93;3.35;;;14.70;99.90;;;;;;5009586;28;20067;-94
2022/09/26 11:17:56;;;;;;;5.93;3.17;;;14.70;99.90;;;;;;5023908;28;20029;-94
2022/09/26 11:20:40;;;;;;;6.50;3.22;;;14.70;99.90;;;;;;5013869;28;20414;-88
2022/09/26 11:23:21;;;;;;;6.40;3.53;;;14.80;99.90;;;;;;5016563;28;20041;-84
2022/09/26 11:25:54;;;;;;;6.80;3.50;;;14.80;99.90;;;;;;5035568;28;20054;-86
2022/09/26 11:28:24;;;;;;;8.57;3.40;;;14.80;99.90;;;;;;5009698;28;20048;-86
2022/09/26 11:31:24;;;;;;;8.70;3.42;;;14.80;99.90;;;;;;5010272;28;20037;-87
2022/09/26 11:34:15;;;;;;;8.68;3.40;;;14.90;99.90;;;;;;5019524;28;20137;-88
2022/09/26 11:37:29;;;;;;;7.85;3.28;;;15.00;99.90;;;;;;5007665;28;20187;-90
2022/09/26 11:40:16;;;;;;;9.10;3.25;;;15.00;99.90;;;;;;5009260;28;20056;-90
2022/09/26 11:42:53;;;;;;;6.07;3.05;;;15.10;99.90;;;;;;4998638;28;20049;-92
2022/09/26 11:45:29;;;;;;;5.60;2.97;;;15.10;99.90;;;;;;5013451;28;20055;-89
2022/09/26 11:48:25;;;;;;;5.80;3.47;;;15.10;99.90;;;;;;5024145;28;20135;-90
2022/09/26 11:51:21;;;;;;;8.10;3.10;;;15.10;99.90;;;;;;5005413;28;20509;-91
2022/09/26 11:54:02;;;;;;;8.60;2.90;;;15.10;99.90;;;;;;5016852;28;20148;-88
2022/09/26 11:56:50;;;;;;;;;;;15.10;99.90;;;;;;5018210;23;20586;-79
2022/09/26 11:59:35;;;;;;;6.25;2.70;;;15.10;99.90;;;;;;5006520;28;19921;-76
2022/09/26 12:02:19;;;;;;;5.82;2.78;;;15.10;99.90;;;;;;5009490;28;20418;-88
2022/09/26 12:05:16;;;;;;;5.95;2.97;;;15.20;99.90;;;;;;5008065;28;20041;-79
2022/09/26 12:07:51;;;;;;;4.90;2.83;;;15.20;99.90;;;;;;4978881;28;20134;-79
2022/09/26 12:10:25;;;;;;;8.10;2.58;;;15.30;99.90;;;;;;4983182;28;20124;-79
2022/09/26 12:13:05;;;;;;;7.82;3.28;;;15.20;99.90;;;;;;4984981;28;20034;-79
2022/09/26 12:15:36;;;;;;;4.75;2.42;;;15.30;99.90;;;;;;4984252;28;20048;-79
2022/09/26 12:18:12;;;;;;;7.40;2.47;;;15.20;99.90;;;;;;4969671;28;20042;-79
2022/09/26 12:20:45;;;;;;;5.07;2.42;;;15.30;99.90;;;;;;4980163;28;20046;-79
2022/09/26 12:23:20;;;;;;;6.93;2.92;;;15.30;99.90;;;;;;4969495;28;20046;-79
2022/09/26 12:25:57;;;;;;;4.53;2.40;;;15.30;99.90;;;;;;4960033;28;20050;-79
2022/09/26 12:29:00;;;;;;;8.45;3.15;;;15.30;99.90;;;;;;4969053;28;20841;-80
2022/09/26 12:31:37;;;;;;;6.53;2.92;;;15.30;99.90;;;;;;4988179;28;20046;-89
2022/09/26 12:34:19;;;;;;;8.18;2.67;;;15.30;99.90;;;;;;4983191;28;20046;-81
2022/09/26 12:36:55;;;;;;;5.05;2.40;;;15.30;99.90;;;;;;4985778;28;20050;-80
2022/09/26 12:39:58;;;;;;;11.05;3.00;;;15.30;99.90;;;;;;4990915;28;20089;-80
2022/09/26 12:42:38;;;;;;;7.45;2.83;;;15.30;99.90;;;;;;4994748;28;20037;-81
2022/09/26 12:45:27;;;;;;;7.65;2.80;;;15.30;99.90;;;;;;4990476;28;20131;-80
2022/09/26 12:48:03;;;;;;;6.28;3.05;;;15.30;99.90;;;;;;4990686;28;20105;-81
2022/09/26 12:50:36;;;;;;;6.90;3.05;;;15.30;99.90;;;;;;4990301;28;20085;-80
2022/09/26 12:53:18;;;;;;;4.45;2.53;;;15.30;99.90;;;;;;4986417;28;20116;-80
2022/09/26 12:55:57;;;;;;;8.57;3.40;;;15.30;99.90;;;;;;4989033;28;20042;-81
2022/09/26 12:58:35;;;;;;;8.07;2.75;;;15.50;99.90;;;;;;4988524;28;20038;-77
2022/09/26 13:01:10;;;;;;;6.32;3.28;;;15.40;99.90;;;;;;4990859;28;20068;-77
2022/09/26 13:04:09;;;;;;;4.60;2.50;;;15.40;99.90;;;;;;5002468;28;20525;-77
2022/09/26 13:07:05;;;;;;;5.20;2.83;;;15.40;99.90;;;;;;4989158;28;20054;-77
2022/09/26 13:09:54;;;;;;;10.27;3.10;;;15.40;99.90;;;;;;4989912;28;20073;-77
2022/09/26 13:12:37;;;;;;;7.05;2.65;;;15.30;99.90;;;;;;4988471;28;20046;-77
2022/09/26 13:15:17;;;;;;;5.70;2.50;;;15.40;99.90;;;;;;4985057;28;20499;-77
2022/09/26 13:17:46;;;;;;;6.72;2.80;;;15.40;99.90;;;;;;4988003;28;20046;-78
2022/09/26 13:20:17;;;;;;;6.45;2.70;;;15.30;99.90;;;;;;4995785;28;20048;-78
2022/09/26 13:22:47;;;;;;;4.22;2.20;;;15.30;99.90;;;;;;4996088;28;20518;-78
2022/09/26 13:25:17;;;;;;;7.25;2.55;;;15.30;99.90;;;;;;4989959;28;20164;-78
2022/09/26 13:27:51;;;;;;;4.57;2.08;;;15.30;99.90;;;;;;4986141;28;20121;-79
2022/09/26 13:30:22;;;;;;;4.15;2.00;;;15.30;99.90;;;;;;4993891;28;20050;-79
2022/09/26 13:32:59;;;;;;;4.88;2.10;;;15.30;99.90;;;;;;4988939;28;20101;-78
2022/09/26 13:35:27;;;;;;;4.53;1.80;;;15.30;99.90;;;;;;4976262;28;20046;-78
2022/09/26 13:38:15;;;;;;;6.07;2.15;;;15.30;99.90;;;;;;4989991;28;20057;-78
2022/09/26 13:40:50;;;;;;;7.78;1.90;;;15.30;99.90;;;;;;4987651;28;20049;-77
2022/09/26 13:43:48;;;;;;;7.45;2.30;;;15.30;99.90;;;;;;4996250;28;20045;-77
2022/09/26 13:46:25;;;;;;;7.63;2.25;;;15.30;99.90;;;;;;4950410;28;20058;-79